^^
Grace C. Lehan Memorial Weather Station Historical Data
Daily Summary for April 26, 2021 Units:  English    Metric   Both
Daily Weekly Monthly Yearly
  High: Low: Average:
Temperature: 32.5 °F 27.6 °F 29.5 °F
Dew Point: 27.8 °F 16.6 °F 22.1 °F
Humidity: 93% 57% 75%
Wind Speed: 2.5mph 0mph 0.2mph
Wind Gust: 10mph - -
Wind- - ESE
Pressure: 30.08 in 29.85 in -
Precipitation: 0.00 in    
 
 
Tabular Data for April 26, 2021
Time Temperature Dew Point Pressure Wind Wind Speed Wind Gust Humidity Rainfall Rate (Hourly) solar
00:04 30.2 °F 16.8 °F 30.05 in ENE 1 mph 6 mph 57% 0.00 in 0 W/m2
00:09 30.1 °F 16.7 °F 30.05 in NE 0.4 mph 6 mph 57% 0.00 in 0 W/m2
00:14 30.1 °F 16.7 °F 30.06 in Calm   6 mph 57% 0.00 in 0 W/m2
00:19 30 °F 16.6 °F 30.06 in NE 0.1 mph 6 mph 57% 0.00 in 0 W/m2
00:24 30 °F 16.6 °F 30.06 in NE 0.2 mph 6 mph 57% 0.00 in 0 W/m2
00:29 29.9 °F 16.6 °F 30.06 in Calm   6 mph 57.2% 0.00 in 0 W/m2
00:34 29.9 °F 16.9 °F 30.07 in Calm   6 mph 58% 0.00 in 0 W/m2
00:39 29.9 °F 16.9 °F 30.07 in Calm     58% 0.00 in 0 W/m2
00:44 29.8 °F 16.9 °F 30.06 in Calm     58% 0.00 in 0 W/m2
00:49 29.8 °F 16.8 °F 30.06 in Calm     58% 0.00 in 0 W/m2
00:54 29.8 °F 16.8 °F 30.07 in Calm     58% 0.00 in 0 W/m2
00:59 29.7 °F 16.8 °F 30.07 in Calm     58% 0.00 in 0 W/m2
01:04 29.7 °F 16.8 °F 30.07 in Calm     58% 0.00 in 0 W/m2
01:09 29.7 °F 16.8 °F 30.07 in Calm   1 mph 58.2% 0.00 in 0 W/m2
01:14 29.7 °F 16.9 °F 30.07 in NE 0.1 mph 1 mph 58.5% 0.00 in 0 W/m2
01:19 29.6 °F 16.8 °F 30.08 in Calm   1 mph 58.3% 0.00 in 0 W/m2
01:24 29.6 °F 17.1 °F 30.08 in Calm   1 mph 59% 0.00 in 0 W/m2
01:29 29.6 °F 17.1 °F 30.08 in Calm   1 mph 59% 0.00 in 0 W/m2
01:34 29.6 °F 17 °F 30.08 in Calm   1 mph 59% 0.00 in 0 W/m2
01:39 29.5 °F 17 °F 30.08 in Calm     59% 0.00 in 0 W/m2
01:44 29.5 °F 17 °F 30.07 in Calm     59% 0.00 in 0 W/m2
01:49 29.5 °F 17 °F 30.07 in Calm     59% 0.00 in 0 W/m2
01:54 29.5 °F 17 °F 30.07 in Calm     59% 0.00 in 0 W/m2
01:59 29.5 °F 17 °F 30.07 in Calm     59% 0.00 in 0 W/m2
02:04 29.6 °F 17 °F 30.08 in Calm     59% 0.00 in 0 W/m2
02:09 29.5 °F 17 °F 30.08 in Calm     59% 0.00 in 0 W/m2
02:14 29.5 °F 17 °F 30.07 in NE 0.3 mph 3 mph 59% 0.00 in 0 W/m2
02:19 29.5 °F 16.9 °F 30.07 in NE 0.2 mph 3 mph 59% 0.00 in 0 W/m2
02:24 29.4 °F 16.9 °F 30.07 in Calm   3 mph 59% 0.00 in 0 W/m2
02:29 29.4 °F 16.9 °F 30.07 in Calm   3 mph 59% 0.00 in 0 W/m2
02:34 29.4 °F 16.9 °F 30.08 in Calm   3 mph 59% 0.00 in 0 W/m2
02:39 29.4 °F 17.1 °F 30.08 in Calm   1 mph 59.5% 0.00 in 0 W/m2
02:44 29.3 °F 17.2 °F 30.07 in NE 0.3 mph 3 mph 60% 0.00 in 0 W/m2
02:49 29.3 °F 17.1 °F 30.07 in NE 0.1 mph 3 mph 59.8% 0.00 in 0 W/m2
02:54 29.3 °F 17.1 °F 30.06 in Calm   3 mph 60% 0.00 in 0 W/m2
02:59 29.2 °F 17.1 °F 30.06 in Calm   3 mph 60% 0.00 in 0 W/m2
03:04 29.2 °F 17.1 °F 30.07 in Calm   3 mph 60% 0.00 in 0 W/m2
03:09 29.2 °F 17.1 °F 30.07 in Calm     60% 0.00 in 0 W/m2
03:14 29.2 °F 17 °F 30.06 in Calm     60% 0.00 in 0 W/m2
03:19 29.1 °F 16.8 °F 30.06 in Calm     59.7% 0.00 in 0 W/m2
03:24 29.1 °F 16.9 °F 30.07 in Calm     59.9% 0.00 in 0 W/m2
03:29 29.1 °F 16.9 °F 30.07 in Calm     60% 0.00 in 0 W/m2
03:34 29 °F 16.9 °F 30.07 in Calm     60% 0.00 in 0 W/m2
03:39 29 °F 17.1 °F 30.06 in Calm     60.6% 0.00 in 0 W/m2
03:44 29 °F 16.9 °F 30.06 in Calm     60% 0.00 in 0 W/m2
03:49 29 °F 16.8 °F 30.05 in Calm     60% 0.00 in 0 W/m2
03:54 28.9 °F 16.8 °F 30.06 in Calm     60% 0.00 in 0 W/m2
03:59 28.8 °F 17 °F 30.06 in Calm   2 mph 60.8% 0.00 in 0 W/m2
04:00 28.8 °F 17.1 °F 30.06 in Calm   2 mph 61% 0.00 in 0 W/m2
04:09 28.6 °F 16.9 °F 30.05 in Calm     61% 0.00 in 0 W/m2
04:14 28.5 °F 16.8 °F 30.06 in NE 0.1 mph 2 mph 61% 0.00 in 0 W/m2
04:19 28.4 °F 16.9 °F 30.06 in Calm   2 mph 61.6% 0.00 in 0 W/m2
04:24 28.2 °F 16.9 °F 30.05 in Calm   2 mph 62% 0.00 in 0 W/m2
04:29 28.1 °F 16.9 °F 30.05 in Calm   2 mph 62.4% 0.00 in 0 W/m2
04:34 28 °F 17.1 °F 30.05 in Calm   2 mph 63% 0.00 in 0 W/m2
04:39 27.9 °F 17 °F 30.04 in Calm   1 mph 63% 0.00 in 0 W/m2
04:44 27.9 °F 17 °F 30.04 in Calm   1 mph 63.1% 0.00 in 0 W/m2
04:49 27.8 °F 17.2 °F 30.04 in Calm   1 mph 64% 0.00 in 0 W/m2
04:54 27.8 °F 17.2 °F 30.05 in Calm   1 mph 64% 0.00 in 0 W/m2
04:59 27.8 °F 17.2 °F 30.04 in NE 0.1 mph 2 mph 64% 0.00 in 0 W/m2
05:04 27.8 °F 17.2 °F 30.04 in Calm   2 mph 64% 0.00 in 0 W/m2
05:09 27.9 °F 17.4 °F 30.05 in Calm     64.3% 0.00 in 0 W/m2
05:14 27.9 °F 17.3 °F 30.05 in Calm   1 mph 64% 0.00 in 0 W/m2
05:19 27.9 °F 17.5 °F 30.05 in Calm   1 mph 64.6% 0.00 in 0 W/m2
05:24 27.9 °F 17.7 °F 30.04 in Calm   1 mph 65% 0.00 in 0 W/m2
05:29 27.9 °F 17.7 °F 30.04 in Calm   1 mph 65% 0.00 in 0 W/m2
05:34 27.9 °F 17.7 °F 30.04 in Calm   3 mph 65% 0.00 in 0 W/m2
05:39 27.8 °F 17.6 °F 30.03 in NE 0.7 mph 4 mph 65% 0.00 in 0 W/m2
05:44 27.8 °F 17.6 °F 30.03 in NE 0.1 mph 4 mph 65% 0.00 in 0 W/m2
05:49 27.7 °F 17.5 °F 30.03 in Calm   4 mph 65% 0.00 in 0 W/m2
05:54 27.7 °F 17.7 °F 30.02 in NE 0.4 mph 4 mph 65.5% 0.00 in 0 W/m2
05:59 27.7 °F 17.8 °F 30.03 in NE 0.1 mph 4 mph 66% 0.00 in 0 W/m2
06:04 27.7 °F 17.8 °F 30.03 in Calm   4 mph 66% 0.00 in 0 W/m2
06:09 27.7 °F 17.8 °F 30.03 in NE 0.3 mph 3 mph 66% 0.00 in 0 W/m2
06:14 27.7 °F 17.8 °F 30.03 in NE 0.6 mph 4 mph 66% 0.00 in 0 W/m2
06:19 27.7 °F 17.9 °F 30.03 in NE 0.8 mph 4 mph 66% 0.00 in 0 W/m2
06:24 27.8 °F 17.9 °F 30.03 in NE 0.3 mph 4 mph 66% 0.00 in 0 W/m2
06:29 27.8 °F 17.9 °F 30.03 in NE 0.1 mph 4 mph 66% 0.00 in 0 W/m2
06:34 27.8 °F 17.9 °F 30.03 in NE 0.2 mph 4 mph 66% 0.00 in 0 W/m2
06:39 27.8 °F 18.1 °F 30.03 in NE 0.2 mph 3 mph 66.4% 0.00 in 0 W/m2
06:44 27.8 °F 18.2 °F 30.04 in NE 0.3 mph 5 mph 66.7% 0.00 in 0 W/m2
06:49 27.8 °F 18.3 °F 30.04 in NE 0.6 mph 5 mph 67% 0.00 in 0 W/m2
06:54 27.8 °F 18.3 °F 30.04 in NE 0.3 mph 5 mph 67% 0.00 in 0 W/m2
06:59 27.8 °F 18.3 °F 30.05 in NE 0.3 mph 5 mph 67% 0.00 in 0 W/m2
07:04 27.8 °F 18.3 °F 30.05 in Calm   5 mph 67% 0.00 in 0 W/m2
07:09 27.8 °F 18.3 °F 30.05 in NE 0.1 mph 2 mph 67% 0.00 in 0 W/m2
07:14 27.7 °F 18.2 °F 30.05 in NE 0.2 mph 2 mph 67% 0.00 in 0 W/m2
07:19 27.7 °F 18.2 °F 30.04 in NE 0.8 mph 4 mph 67% 0.00 in 7 W/m2
07:24 27.6 °F 18.1 °F 30.04 in NE 0.9 mph 4 mph 67% 0.00 in 11 W/m2
07:29 27.6 °F 18.1 °F 30.04 in NE 0.2 mph 4 mph 67% 0.00 in 12 W/m2
07:34 27.6 °F 18.1 °F 30.05 in Calm   4 mph 67% 0.00 in 19 W/m2
07:39 27.6 °F 18.2 °F 30.04 in NNW 1.2 mph 9 mph 67.3% 0.00 in 23 W/m2
07:44 27.6 °F 18.1 °F 30.04 in NE 0.9 mph 9 mph 67% 0.00 in 26 W/m2
07:49 27.7 °F 18.2 °F 30.04 in North 0.5 mph 9 mph 67.2% 0.00 in 28 W/m2
07:54 27.8 °F 18.4 °F 30.04 in North 0.1 mph 9 mph 67.3% 0.00 in 33 W/m2
07:59 27.8 °F 18.3 °F 30.04 in North 1.8 mph 10 mph 67% 0.00 in 39 W/m2
08:09 27.9 °F 18.4 °F 30.04 in NE 0.7 mph 4 mph 67% 0.00 in 49 W/m2
08:14 27.9 °F 18.2 °F 30.05 in NNE 1.7 mph 6 mph 66.5% 0.00 in 54 W/m2
08:19 28 °F 18.2 °F 30.05 in North 1.1 mph 7 mph 66.3% 0.00 in 58 W/m2
08:24 28.1 °F 18.2 °F 30.05 in NE 0.8 mph 7 mph 66% 0.00 in 58 W/m2
08:29 28.2 °F 18.3 °F 30.04 in NE 0.5 mph 7 mph 66% 0.00 in 60 W/m2
08:34 28.3 °F 18.4 °F 30.04 in NE 1.8 mph 7 mph 66% 0.00 in 67 W/m2
08:39 28.3 °F 18.4 °F 30.05 in NE 1.7 mph 6 mph 66% 0.00 in 70 W/m2
08:44 28.3 °F 18.4 °F 30.05 in NE 0.8 mph 6 mph 66% 0.00 in 77 W/m2
08:49 28.4 °F 18.5 °F 30.05 in NE 0.9 mph 6 mph 66% 0.00 in 91 W/m2
08:54 28.6 °F 18.7 °F 30.04 in ENE 1.1 mph 6 mph 66% 0.00 in 111 W/m2
08:59 28.7 °F 18.8 °F 30.04 in NE 1.3 mph 6 mph 66% 0.00 in 111 W/m2
09:04 28.7 °F 18.8 °F 30.04 in NE 1.5 mph 6 mph 66% 0.00 in 113 W/m2
09:09 28.9 °F 19 °F 30.04 in NE 0.9 mph 5 mph 66% 0.00 in 130 W/m2
09:14 29.1 °F 19.2 °F 30.05 in North 1.2 mph 7 mph 66% 0.00 in 149 W/m2
09:19 29.4 °F 19.3 °F 30.05 in NNW 2.5 mph 7 mph 65.4% 0.00 in 128 W/m2
09:24 29.6 °F 19.3 °F 30.06 in North 1.1 mph 7 mph 65% 0.00 in 137 W/m2
09:29 29.8 °F 19.5 °F 30.06 in NNE 0.5 mph 7 mph 65% 0.00 in 142 W/m2
09:34 30 °F 19.6 °F 30.07 in NNE 0.2 mph 7 mph 64.8% 0.00 in 127 W/m2
09:39 30.1 °F 19.4 °F 30.07 in NNE 1 mph 6 mph 64% 0.00 in 98 W/m2
09:44 30.1 °F 19.4 °F 30.07 in NNE 0.6 mph 6 mph 64% 0.00 in 107 W/m2
09:49 30.2 °F 19.5 °F 30.07 in NNE 1.1 mph 6 mph 64% 0.00 in 123 W/m2
09:54 30.2 °F 19.6 °F 30.07 in NE 0.5 mph 6 mph 64.2% 0.00 in 167 W/m2
09:59 30.3 °F 20 °F 30.07 in NNE 0.7 mph 6 mph 65% 0.00 in 169 W/m2
10:04 30.6 °F 20.1 °F 30.06 in North 1.9 mph 9 mph 64.6% 0.00 in 162 W/m2
10:09 30.5 °F 19.8 °F 30.06 in ENE 0.9 mph 9 mph 63.8% 0.00 in 160 W/m2
10:14 30.6 °F 20.1 °F 30.06 in NNE 0.4 mph 9 mph 64.7% 0.00 in 151 W/m2
10:19 30.8 °F 20.2 °F 30.06 in NNE 0.6 mph 9 mph 64.5% 0.00 in 156 W/m2
10:24 30.9 °F 20.2 °F 30.05 in North 0.4 mph 9 mph 64% 0.00 in 141 W/m2
10:29 31 °F 20.2 °F 30.05 in NNW 0.6 mph 9 mph 63.7% 0.00 in 132 W/m2
10:34 31 °F 20.2 °F 30.04 in NNE 0.5 mph 9 mph 63.8% 0.00 in 135 W/m2
10:39 31.1 °F 20.3 °F 30.04 in NE 0.2 mph 4 mph 63.9% 0.00 in 146 W/m2
10:44 31.2 °F 20.2 °F 30.04 in NE 0.5 mph 5 mph 63.5% 0.00 in 172 W/m2
10:49 31.1 °F 20 °F 30.04 in NE 0.7 mph 5 mph 63% 0.00 in 174 W/m2
10:54 31.1 °F 20.1 °F 30.04 in NNE 0.5 mph 5 mph 63.3% 0.00 in 167 W/m2
10:59 31.2 °F 20.2 °F 30.04 in NNE 0.2 mph 5 mph 63.2% 0.00 in 151 W/m2
11:04 31.2 °F 20.1 °F 30.03 in ENE 0.4 mph 5 mph 63% 0.00 in 162 W/m2
11:09 31 °F 19.9 °F 30.04 in ENE 0.5 mph 4 mph 63% 0.00 in 160 W/m2
11:14 31 °F 19.9 °F 30.04 in ENE 0.7 mph 4 mph 63% 0.00 in 132 W/m2
11:19 31.2 °F 20.1 °F 30.04 in Calm   4 mph 63% 0.00 in 128 W/m2
11:24 31.4 °F 20.3 °F 30.04 in Calm   4 mph 63% 0.00 in 105 W/m2
11:29 31.6 °F 20.4 °F 30.03 in Calm   4 mph 63% 0.00 in 107 W/m2
11:34 31.8 °F 20.4 °F 30.03 in Calm   4 mph 62.3% 0.00 in 107 W/m2
11:39 32 °F 20.4 °F 30.03 in Calm     62% 0.00 in 111 W/m2
11:44 32 °F 20.4 °F 30.02 in Calm     61.8% 0.00 in 111 W/m2
11:49 32.1 °F 20.4 °F 30.02 in Calm     61.5% 0.00 in 102 W/m2
11:54 32.1 °F 20.3 °F 30.02 in Calm     61.1% 0.00 in 86 W/m2
11:59 32.2 °F 20.3 °F 30.01 in Calm     61% 0.00 in 83 W/m2
12:04 32.4 °F 20.1 °F 30.00 in Calm     60% 0.00 in 84 W/m2
12:09 32.4 °F 20.5 °F 30.00 in Calm     61% 0.00 in 88 W/m2
12:14 32.5 °F 20.3 °F 30.00 in Calm     60.4% 0.00 in 81 W/m2
12:19 32.5 °F 20.2 °F 30.00 in ENE 0.1 mph 2 mph 60% 0.00 in 60 W/m2
12:24 32.5 °F 20.2 °F 30.00 in Calm   2 mph 60% 0.00 in 62 W/m2
12:29 32.4 °F 20.1 °F 30.00 in Calm   2 mph 60% 0.00 in 62 W/m2
12:34 32.3 °F 20.3 °F 29.99 in Calm   2 mph 60.8% 0.00 in 53 W/m2
12:39 32.3 °F 20.3 °F 29.99 in Calm     61% 0.00 in 51 W/m2
12:44 32.2 °F 20.3 °F 30.00 in Calm     61% 0.00 in 40 W/m2
12:49 32.2 °F 20.2 °F 29.99 in Calm     61% 0.00 in 39 W/m2
12:54 32.2 °F 20.4 °F 29.99 in Calm     61.3% 0.00 in 39 W/m2
12:59 32.2 °F 20.6 °F 29.99 in Calm     61.8% 0.00 in 37 W/m2
13:04 32.3 °F 20.4 °F 29.99 in Calm     61% 0.00 in 40 W/m2
13:09 32.3 °F 20.4 °F 29.99 in Calm     61% 0.00 in 40 W/m2
13:14 32.3 °F 20.3 °F 29.98 in Calm     60.8% 0.00 in 32 W/m2
13:19 32.2 °F 20.8 °F 29.97 in ENE 0.4 mph 3 mph 62.5% 0.00 in 28 W/m2
13:24 32.1 °F 21.4 °F 29.96 in ENE 0.1 mph 3 mph 64.1% 0.00 in 21 W/m2
13:29 32 °F 22 °F 29.97 in Calm   3 mph 66.2% 0.00 in 21 W/m2
13:34 31.8 °F 22.7 °F 29.97 in Calm   3 mph 68.6% 0.00 in 21 W/m2
13:39 31.5 °F 23.4 °F 29.97 in Calm     71.4% 0.00 in 30 W/m2
13:44 31.1 °F 23.9 °F 29.96 in Calm     74.1% 0.00 in 32 W/m2
13:49 30.6 °F 24.4 °F 29.96 in Calm     77.3% 0.00 in 32 W/m2
13:54 30.1 °F 24.4 °F 29.96 in Calm     79% 0.00 in 25 W/m2
13:59 29.8 °F 24.7 °F 29.96 in Calm     81.3% 0.00 in 23 W/m2
14:04 29.5 °F 25 °F 29.96 in Calm     83% 0.00 in 16 W/m2
14:09 29.3 °F 25.1 °F 29.96 in Calm     84% 0.00 in 21 W/m2
14:14 29.2 °F 25.2 °F 29.96 in Calm     84.9% 0.00 in 25 W/m2
14:19 29.1 °F 25.3 °F 29.96 in Calm     85.7% 0.00 in 18 W/m2
14:24 29.1 °F 25.5 °F 29.95 in Calm     86.1% 0.00 in 16 W/m2
14:29 29 °F 25.6 °F 29.96 in Calm     87% 0.00 in 18 W/m2
14:34 29 °F 25.6 °F 29.96 in Calm     87% 0.00 in 23 W/m2
14:39 28.9 °F 25.6 °F 29.96 in Calm     87% 0.00 in 25 W/m2
14:44 28.9 °F 25.8 °F 29.96 in Calm     88% 0.00 in 19 W/m2
14:49 28.9 °F 25.8 °F 29.96 in Calm     88% 0.00 in 18 W/m2
14:54 29 °F 25.9 °F 29.96 in Calm     88% 0.00 in 18 W/m2
14:59 29 °F 26.1 °F 29.96 in Calm     88.7% 0.00 in 14 W/m2
15:04 29 °F 26.1 °F 29.96 in Calm     88.6% 0.00 in 16 W/m2
15:09 29 °F 26.2 °F 29.96 in Calm     89% 0.00 in 14 W/m2
15:14 29 °F 26.2 °F 29.96 in Calm     89% 0.00 in 14 W/m2
15:19 29.2 °F 26.3 °F 29.96 in Calm     89% 0.00 in 19 W/m2
15:24 29.3 °F 26.4 °F 29.96 in Calm     89% 0.00 in 18 W/m2
15:29 29.4 °F 26.7 °F 29.95 in Calm     89.7% 0.00 in 14 W/m2
15:34 29.5 °F 26.8 °F 29.95 in Calm     89.4% 0.00 in 14 W/m2
15:39 29.6 °F 26.7 °F 29.94 in Calm     89% 0.00 in 12 W/m2
15:44 29.6 °F 26.8 °F 29.94 in Calm     89% 0.00 in 9 W/m2
15:49 29.7 °F 26.8 °F 29.95 in Calm     89% 0.00 in 9 W/m2
15:54 29.7 °F 26.9 °F 29.94 in Calm     89% 0.00 in 9 W/m2
15:59 29.8 °F 27 °F 29.94 in Calm     89% 0.00 in 7 W/m2
16:04 29.7 °F 26.9 °F 29.93 in Calm     89% 0.00 in 5 W/m2
16:09 29.7 °F 26.9 °F 29.93 in Calm     89% 0.00 in 5 W/m2
16:14 29.7 °F 26.9 °F 29.93 in Calm     89% 0.00 in 5 W/m2
16:19 29.7 °F 26.9 °F 29.93 in Calm     89% 0.00 in 0 W/m2
16:24 29.7 °F 26.9 °F 29.93 in Calm     89% 0.00 in 0 W/m2
16:29 29.7 °F 26.9 °F 29.93 in Calm     89% 0.00 in 0 W/m2
16:34 29.7 °F 26.9 °F 29.92 in Calm     89.1% 0.00 in 0 W/m2
16:39 29.6 °F 26.8 °F 29.92 in Calm     89% 0.00 in 0 W/m2
16:44 29.6 °F 26.8 °F 29.92 in Calm     89.1% 0.00 in 0 W/m2
16:49 29.6 °F 27 °F 29.92 in Calm     89.9% 0.00 in 0 W/m2
16:54 29.6 °F 27 °F 29.92 in Calm     90% 0.00 in 0 W/m2
16:59 29.5 °F 27 °F 29.92 in Calm   1 mph 90% 0.00 in 0 W/m2
17:04 29.6 °F 27 °F 29.92 in Calm   1 mph 90% 0.00 in 0 W/m2
17:09 29.5 °F 27 °F 29.91 in Calm     90% 0.00 in 0 W/m2
17:14 29.5 °F 26.9 °F 29.91 in ENE 0.2 mph 2 mph 90% 0.00 in 0 W/m2
17:19 29.4 °F 26.8 °F 29.91 in Calm   2 mph 90% 0.00 in 0 W/m2
17:24 29.4 °F 26.8 °F 29.92 in Calm   2 mph 90% 0.00 in 0 W/m2
17:29 29.4 °F 26.8 °F 29.92 in Calm   2 mph 90% 0.00 in 0 W/m2
17:34 29.4 °F 26.8 °F 29.92 in Calm   2 mph 90% 0.00 in 0 W/m2
17:39 29.4 °F 26.8 °F 29.92 in Calm     90% 0.00 in 0 W/m2
17:44 29.5 °F 27.1 °F 29.93 in ENE 0.2 mph 2 mph 90.7% 0.00 in 0 W/m2
17:49 29.6 °F 27.3 °F 29.93 in NNW 0.5 mph 4 mph 91% 0.00 in 0 W/m2
17:54 29.6 °F 27.3 °F 29.93 in NNW 0.7 mph 5 mph 91% 0.00 in 0 W/m2
17:59 29.7 °F 27.4 °F 29.93 in NNW 0.2 mph 5 mph 91% 0.00 in 0 W/m2
18:04 29.7 °F 27.4 °F 29.93 in Calm   5 mph 91% 0.00 in 0 W/m2
18:09 29.6 °F 27.3 °F 29.93 in Calm     91% 0.00 in 0 W/m2
18:14 29.6 °F 27.3 °F 29.93 in Calm   1 mph 91% 0.00 in 0 W/m2
18:19 29.7 °F 27.4 °F 29.93 in NNE 0.6 mph 3 mph 91% 0.00 in 0 W/m2
18:24 29.6 °F 27.3 °F 29.93 in Calm   3 mph 91% 0.00 in 0 W/m2
18:29 29.7 °F 27.4 °F 29.93 in Calm   3 mph 91% 0.00 in 0 W/m2
18:34 29.6 °F 27.3 °F 29.93 in NE 0.8 mph 4 mph 91% 0.00 in 0 W/m2
18:39 29.6 °F 27.3 °F 29.93 in Calm   4 mph 91% 0.00 in 0 W/m2
18:44 29.5 °F 27.2 °F 29.93 in NE 0.3 mph 4 mph 91% 0.00 in 0 W/m2
18:49 29.4 °F 27.1 °F 29.93 in NE 0.5 mph 4 mph 91% 0.00 in 0 W/m2
18:54 29.4 °F 27.1 °F 29.92 in NE 0.7 mph 4 mph 91% 0.00 in 0 W/m2
18:59 29.3 °F 27 °F 29.92 in NE 0.1 mph 4 mph 91% 0.00 in 0 W/m2
19:04 29.3 °F 27 °F 29.92 in Calm   4 mph 91% 0.00 in 0 W/m2
19:09 29.3 °F 27 °F 29.92 in Calm     91% 0.00 in 0 W/m2
19:14 29.3 °F 27 °F 29.92 in Calm     91% 0.00 in 0 W/m2
19:19 29.3 °F 27 °F 29.92 in NE 0.5 mph 3 mph 91% 0.00 in 0 W/m2
19:24 29.3 °F 27.1 °F 29.92 in Calm   3 mph 91.5% 0.00 in 0 W/m2
19:29 29.3 °F 27 °F 29.92 in NE 0.1 mph 3 mph 91% 0.00 in 0 W/m2
19:34 29.3 °F 27 °F 29.92 in Calm   3 mph 91% 0.00 in 0 W/m2
19:39 29.3 °F 27.2 °F 29.92 in North 0.4 mph 4 mph 91.6% 0.00 in 0 W/m2
19:44 29.3 °F 27.3 °F 29.92 in North 0.3 mph 4 mph 92% 0.00 in 0 W/m2
19:49 29.3 °F 27.3 °F 29.92 in NNW 0.9 mph 6 mph 92% 0.00 in 0 W/m2
19:54 29.3 °F 27.3 °F 29.92 in NNW 1.7 mph 6 mph 92% 0.00 in 0 W/m2
19:59 29.3 °F 27.3 °F 29.92 in North 0.4 mph 6 mph 92% 0.00 in 0 W/m2
20:00 29.3 °F 27.3 °F 29.91 in NE 1 mph 6 mph 92% 0.00 in 0 W/m2
20:09 29.2 °F 27.2 °F 29.91 in NNE 0.1 mph 2 mph 92% 0.00 in 0 W/m2
20:14 29.2 °F 27.2 °F 29.91 in North 0.1 mph 4 mph 92% 0.00 in 0 W/m2
20:19 29.2 °F 27.2 °F 29.91 in North 0.3 mph 4 mph 92% 0.00 in 0 W/m2
20:24 29.2 °F 27.2 °F 29.91 in Calm   4 mph 92% 0.00 in 0 W/m2
20:29 29.3 °F 27.2 °F 29.91 in Calm   4 mph 92% 0.00 in 0 W/m2
20:34 29.3 °F 27.3 °F 29.90 in NNE 0.2 mph 4 mph 92% 0.00 in 0 W/m2
20:39 29.3 °F 27.3 °F 29.90 in Calm   1 mph 92% 0.00 in 0 W/m2
20:44 29.3 °F 27.3 °F 29.90 in North 0.4 mph 4 mph 92% 0.00 in 0 W/m2
20:49 29.3 °F 27.3 °F 29.90 in Calm   4 mph 92% 0.00 in 0 W/m2
20:54 29.3 °F 27.3 °F 29.90 in Calm   4 mph 92% 0.00 in 0 W/m2
20:59 29.3 °F 27.3 °F 29.89 in Calm   4 mph 92% 0.00 in 0 W/m2
21:04 29.3 °F 27.3 °F 29.89 in Calm   4 mph 92% 0.00 in 0 W/m2
21:09 29.3 °F 27.3 °F 29.89 in North 0.1 mph 2 mph 92% 0.00 in 0 W/m2
21:14 29.3 °F 27.3 °F 29.89 in North 0.1 mph 2 mph 92% 0.00 in 0 W/m2
21:19 29.3 °F 27.3 °F 29.89 in North 0.2 mph 2 mph 92% 0.00 in 0 W/m2
21:24 29.3 °F 27.3 °F 29.89 in Calm   2 mph 92% 0.00 in 0 W/m2
21:29 29.3 °F 27.3 °F 29.88 in Calm   2 mph 92% 0.00 in 0 W/m2
21:34 29.3 °F 27.3 °F 29.88 in North 0.2 mph 3 mph 92% 0.00 in 0 W/m2
21:39 29.3 °F 27.3 °F 29.88 in Calm   3 mph 92% 0.00 in 0 W/m2
21:44 29.3 °F 27.3 °F 29.87 in Calm   3 mph 92% 0.00 in 0 W/m2
21:49 29.3 °F 27.3 °F 29.87 in Calm   3 mph 92% 0.00 in 0 W/m2
21:54 29.3 °F 27.3 °F 29.87 in Calm   3 mph 92% 0.00 in 0 W/m2
21:59 29.3 °F 27.3 °F 29.87 in Calm   3 mph 92% 0.00 in 0 W/m2
22:04 29.3 °F 27.3 °F 29.87 in Calm   3 mph 92% 0.00 in 0 W/m2
22:09 29.3 °F 27.3 °F 29.87 in Calm     92% 0.00 in 0 W/m2
22:14 29.3 °F 27.3 °F 29.87 in Calm     92% 0.00 in 0 W/m2
22:19 29.3 °F 27.3 °F 29.86 in Calm     92% 0.00 in 0 W/m2
22:24 29.3 °F 27.3 °F 29.86 in Calm     92% 0.00 in 0 W/m2
22:29 29.3 °F 27.3 °F 29.86 in Calm     92% 0.00 in 0 W/m2
22:34 29.3 °F 27.3 °F 29.86 in Calm     92% 0.00 in 0 W/m2
22:39 29.3 °F 27.3 °F 29.86 in Calm     92% 0.00 in 0 W/m2
22:44 29.4 °F 27.3 °F 29.86 in Calm     92% 0.00 in 0 W/m2
22:49 29.4 °F 27.4 °F 29.86 in Calm     92% 0.00 in 0 W/m2
22:54 29.4 °F 27.5 °F 29.86 in Calm     92.4% 0.00 in 0 W/m2
22:59 29.4 °F 27.6 °F 29.86 in North 0.2 mph 2 mph 93% 0.00 in 0 W/m2
23:04 29.5 °F 27.7 °F 29.85 in Calm     93% 0.00 in 0 W/m2
23:09 29.5 °F 27.7 °F 29.86 in Calm   3 mph 93% 0.00 in 0 W/m2
23:14 29.6 °F 27.8 °F 29.86 in North 0.1 mph 3 mph 93% 0.00 in 0 W/m2
23:19 29.6 °F 27.8 °F 29.86 in North 0.2 mph 3 mph 93% 0.00 in 0 W/m2
23:24 29.6 °F 27.8 °F 29.86 in North 0.1 mph 3 mph 93% 0.00 in 0 W/m2
23:29 29.6 °F 27.8 °F 29.86 in North 0.3 mph 4 mph 93% 0.00 in 0 W/m2
23:34 29.6 °F 27.8 °F 29.86 in North 0.2 mph 4 mph 93% 0.00 in 0 W/m2
23:39 29.6 °F 27.8 °F 29.86 in North 0.2 mph 4 mph 93% 0.00 in 0 W/m2
23:44 29.6 °F 27.8 °F 29.85 in North 0.7 mph 4 mph 93% 0.00 in 0 W/m2
23:49 29.6 °F 27.8 °F 29.85 in North 0.6 mph 4 mph 93% 0.00 in 0 W/m2
23:54 29.6 °F 27.8 °F 29.85 in North 0.4 mph 4 mph 93% 0.00 in 0 W/m2
23:59 29.6 °F 27.8 °F 29.85 in North 0.1 mph 4 mph 93% 0.00 in 0 W/m2
Hartford County Weather
Compliments of Weather Underground - 4 mb